Time,TemperatureF,DewpointF,PressureIn,WindDirection,WindDirectionDegrees,WindSpeedMPH,WindSpeedGustMPH,Humidity,HourlyPrecipIn,Conditions,Clouds,dailyrainin,SoftwareType,DateUTC
2013-10-24 00:11:00,35.4,29.2,30.10,WNW,292,0.0,-999.0,78,-99.99,,,0.00,Acu-Link.com,2013-10-24 05:11:00,
2013-10-24 00:26:00,35.2,29.4,30.10,West,270,0.0,-999.0,79,-99.99,,,0.00,Acu-Link.com,2013-10-24 05:26:00,
2013-10-24 00:41:00,34.5,29.3,30.11,WNW,292,0.0,-999.0,81,-99.99,,,0.00,Acu-Link.com,2013-10-24 05:41:00,
2013-10-24 00:56:00,34.2,29.3,30.11,WNW,292,0.0,-999.0,82,-99.99,,,0.00,Acu-Link.com,2013-10-24 05:56:00,
2013-10-24 01:11:00,33.6,29.0,30.11,NW,315,0.0,-999.0,83,-99.99,,,0.00,Acu-Link.com,2013-10-24 06:11:00,
2013-10-24 01:26:00,33.1,28.8,30.11,WNW,292,0.0,-999.0,84,-99.99,,,0.00,Acu-Link.com,2013-10-24 06:26:00,
2013-10-24 01:41:00,32.7,28.4,30.11,WNW,292,0.0,-999.0,84,-99.99,,,0.00,Acu-Link.com,2013-10-24 06:41:00,
2013-10-24 01:56:00,32.4,28.4,30.12,West,270,0.0,-999.0,85,-99.99,,,0.00,Acu-Link.com,2013-10-24 06:56:00,
2013-10-24 02:12:00,32.2,28.2,30.12,WNW,292,0.0,-999.0,85,-99.99,,,0.00,Acu-Link.com,2013-10-24 07:12:00,
2013-10-24 02:27:00,31.6,27.9,30.13,West,270,0.0,-999.0,86,-99.99,,,0.00,Acu-Link.com,2013-10-24 07:27:00,
2013-10-24 02:42:00,31.5,28.1,30.13,West,270,0.0,-999.0,87,-99.99,,,0.00,Acu-Link.com,2013-10-24 07:42:00,
2013-10-24 02:57:00,31.3,27.9,30.14,West,270,0.0,-999.0,87,-99.99,,,0.00,Acu-Link.com,2013-10-24 07:57:00,
2013-10-24 03:13:00,31.3,27.9,30.14,WNW,292,0.0,-999.0,87,-99.99,,,0.00,Acu-Link.com,2013-10-24 08:13:00,
2013-10-24 03:28:00,31.3,27.9,30.14,West,270,0.0,-999.0,87,-99.99,,,0.00,Acu-Link.com,2013-10-24 08:28:00,
2013-10-24 03:43:00,31.1,27.7,30.14,WNW,292,0.0,-999.0,87,-99.99,,,0.00,Acu-Link.com,2013-10-24 08:43:00,
2013-10-24 03:58:00,30.9,27.8,30.15,West,270,0.0,-999.0,88,-99.99,,,0.00,Acu-Link.com,2013-10-24 08:58:00,
2013-10-24 04:13:00,30.4,27.3,30.15,WNW,292,0.0,-999.0,88,-99.99,,,0.00,Acu-Link.com,2013-10-24 09:13:00,
2013-10-24 04:29:00,30.2,27.4,30.16,West,270,0.0,-999.0,89,-99.99,,,0.00,Acu-Link.com,2013-10-24 09:29:00,
2013-10-24 04:44:00,29.8,27.0,30.16,WNW,292,0.0,-999.0,89,-99.99,,,0.00,Acu-Link.com,2013-10-24 09:44:00,
2013-10-24 04:59:00,29.7,26.9,30.17,West,270,0.0,-999.0,89,-99.99,,,0.00,Acu-Link.com,2013-10-24 09:59:00,
2013-10-24 05:15:00,29.5,26.7,30.17,NW,315,0.0,-999.0,89,-99.99,,,0.00,Acu-Link.com,2013-10-24 10:15:00,
2013-10-24 05:30:00,29.7,26.9,30.17,WNW,292,0.0,-999.0,89,-99.99,,,0.00,Acu-Link.com,2013-10-24 10:30:00,
2013-10-24 05:46:00,29.7,26.9,30.18,WNW,292,0.0,-999.0,89,-99.99,,,0.00,Acu-Link.com,2013-10-24 10:46:00,
2013-10-24 06:01:00,29.7,26.9,30.18,North,0,0.0,-999.0,89,-99.99,,,0.00,Acu-Link.com,2013-10-24 11:01:00,
2013-10-24 06:16:00,30.2,27.1,30.19,West,270,6.3,-999.0,88,-99.99,,,0.00,Acu-Link.com,2013-10-24 11:16:00,
2013-10-24 06:32:00,30.2,26.8,30.19,NW,315,0.0,-999.0,87,-99.99,,,0.00,Acu-Link.com,2013-10-24 11:32:00,
2013-10-24 06:47:00,30.6,27.2,30.19,NW,315,0.0,-999.0,87,-99.99,,,0.00,Acu-Link.com,2013-10-24 11:47:00,
2013-10-24 07:02:00,30.9,27.2,30.19,NW,315,0.0,-999.0,86,-99.99,,,0.00,Acu-Link.com,2013-10-24 12:02:00,
2013-10-24 07:17:00,30.9,27.2,30.19,NW,315,0.0,-999.0,86,-99.99,,,0.00,Acu-Link.com,2013-10-24 12:17:00,
2013-10-24 07:32:00,31.1,27.4,30.19,WNW,292,0.0,-999.0,86,-99.99,,,0.00,Acu-Link.com,2013-10-24 12:32:00,
2013-10-24 07:48:00,31.3,27.6,30.18,WNW,292,0.0,-999.0,86,-99.99,,,0.00,Acu-Link.com,2013-10-24 12:48:00,
2013-10-24 08:03:00,31.3,27.6,30.19,WNW,292,0.0,-999.0,86,-99.99,,,0.00,Acu-Link.com,2013-10-24 13:03:00,
2013-10-24 08:18:00,31.1,27.4,30.20,WNW,292,0.0,-999.0,86,-99.99,,,0.00,Acu-Link.com,2013-10-24 13:18:00,
2013-10-24 08:34:00,31.6,27.9,30.21,West,270,0.0,-999.0,86,-99.99,,,0.00,Acu-Link.com,2013-10-24 13:34:00,
2013-10-24 08:49:00,32.5,28.2,30.21,NW,315,0.0,-999.0,84,-99.99,,,0.00,Acu-Link.com,2013-10-24 13:49:00,
2013-10-24 09:04:00,33.3,28.7,30.22,NW,315,0.0,-999.0,83,-99.99,,,0.00,Acu-Link.com,2013-10-24 14:04:00,
2013-10-24 09:19:00,34.2,29.0,30.22,West,270,0.0,-999.0,81,-99.99,,,0.00,Acu-Link.com,2013-10-24 14:19:00,
2013-10-24 09:35:00,35.1,29.3,30.23,West,270,0.0,-999.0,79,-99.99,,,0.00,Acu-Link.com,2013-10-24 14:35:00,
2013-10-24 09:50:00,36.3,29.8,30.23,WNW,292,0.0,-999.0,77,-99.99,,,0.00,Acu-Link.com,2013-10-24 14:50:00,
2013-10-24 10:05:00,37.2,30.3,30.24,West,270,0.0,-999.0,76,-99.99,,,0.00,Acu-Link.com,2013-10-24 15:05:00,
2013-10-24 10:21:00,38.8,30.6,30.24,NNW,337,0.0,-999.0,72,-99.99,,,0.00,Acu-Link.com,2013-10-24 15:21:00,
2013-10-24 10:36:00,40.1,31.5,30.24,NW,315,0.0,-999.0,71,-99.99,,,0.00,Acu-Link.com,2013-10-24 15:36:00,
2013-10-24 10:51:00,41.7,30.8,30.24,West,270,0.0,-999.0,65,-99.99,,,0.00,Acu-Link.com,2013-10-24 15:51:00,
2013-10-24 11:07:00,41.9,30.6,30.24,WNW,292,10.9,-999.0,64,-99.99,,,0.00,Acu-Link.com,2013-10-24 16:07:00,
2013-10-24 11:22:00,42.4,30.7,30.25,NNW,337,13.0,-999.0,63,-99.99,,,0.00,Acu-Link.com,2013-10-24 16:22:00,
2013-10-24 11:37:00,43.0,31.3,30.25,NW,315,0.0,-999.0,63,-99.99,,,0.00,Acu-Link.com,2013-10-24 16:37:00,
2013-10-24 11:52:00,43.5,31.0,30.25,NE,45,0.0,-999.0,61,-99.99,,,0.00,Acu-Link.com,2013-10-24 16:52:00,
2013-10-24 12:07:00,43.9,30.1,30.25,NW,315,9.9,-999.0,58,-99.99,,,0.00,Acu-Link.com,2013-10-24 17:07:00,
2013-10-24 12:23:00,44.6,29.4,30.25,NNW,337,1.1,-999.0,55,-99.99,,,0.00,Acu-Link.com,2013-10-24 17:23:00,
2013-10-24 12:38:00,44.4,28.8,30.25,WNW,292,0.0,-999.0,54,-99.99,,,0.00,Acu-Link.com,2013-10-24 17:38:00,
2013-10-24 12:53:00,44.1,29.4,30.25,WNW,292,0.0,-999.0,56,-99.99,,,0.00,Acu-Link.com,2013-10-24 17:53:00,
2013-10-24 13:08:00,45.3,28.3,30.25,WNW,292,0.0,-999.0,51,-99.99,,,0.00,Acu-Link.com,2013-10-24 18:08:00,
2013-10-24 13:23:00,45.3,28.7,30.24,West,270,0.0,-999.0,52,-99.99,,,0.00,Acu-Link.com,2013-10-24 18:23:00,
2013-10-24 13:39:00,46.2,28.6,30.24,WNW,292,8.3,-999.0,50,-99.99,,,0.00,Acu-Link.com,2013-10-24 18:39:00,
2013-10-24 13:54:00,46.0,28.4,30.24,WNW,292,14.5,-999.0,50,-99.99,,,0.00,Acu-Link.com,2013-10-24 18:54:00,
2013-10-24 14:09:00,46.6,29.0,30.23,WSW,247,10.4,-999.0,50,-99.99,,,0.00,Acu-Link.com,2013-10-24 19:09:00,
2013-10-24 14:24:00,46.4,28.3,30.23,West,270,0.0,-999.0,49,-99.99,,,0.00,Acu-Link.com,2013-10-24 19:24:00,
2013-10-24 14:40:00,46.6,28.0,30.22,WNW,292,0.0,-999.0,48,-99.99,,,0.00,Acu-Link.com,2013-10-24 19:40:00,
2013-10-24 14:55:00,47.3,28.6,30.22,WSW,247,7.8,-999.0,48,-99.99,,,0.00,Acu-Link.com,2013-10-24 19:55:00,
2013-10-24 15:10:00,46.9,29.2,30.22,West,270,0.0,-999.0,50,-99.99,,,0.00,Acu-Link.com,2013-10-24 20:10:00,
2013-10-24 15:25:00,46.6,28.5,30.22,SSW,202,0.0,-999.0,49,-99.99,,,0.00,Acu-Link.com,2013-10-24 20:25:00,
2013-10-24 15:40:00,47.8,28.0,30.22,WNW,292,0.0,-999.0,46,-99.99,,,0.00,Acu-Link.com,2013-10-24 20:40:00,
2013-10-24 15:55:00,47.5,28.3,30.22,West,270,0.0,-999.0,47,-99.99,,,0.00,Acu-Link.com,2013-10-24 20:55:00,
2013-10-24 16:11:00,47.1,27.9,30.22,WNW,292,1.1,-999.0,47,-99.99,,,0.00,Acu-Link.com,2013-10-24 21:11:00,
2013-10-24 16:26:00,46.2,28.1,30.22,West,270,0.0,-999.0,49,-99.99,,,0.00,Acu-Link.com,2013-10-24 21:26:00,
2013-10-24 16:41:00,47.1,27.4,30.22,NE,45,0.0,-999.0,46,-99.99,,,0.00,Acu-Link.com,2013-10-24 21:41:00,
2013-10-24 16:57:00,46.8,27.1,30.22,WNW,292,8.9,-999.0,46,-99.99,,,0.00,Acu-Link.com,2013-10-24 21:57:00,
2013-10-24 17:12:00,47.7,27.4,30.22,WNW,292,10.9,-999.0,45,-99.99,,,0.00,Acu-Link.com,2013-10-24 22:12:00,
2013-10-24 17:27:00,47.5,27.8,30.22,West,270,0.0,-999.0,46,-99.99,,,0.00,Acu-Link.com,2013-10-24 22:27:00,
2013-10-24 17:42:00,46.4,27.3,30.22,WNW,292,0.0,-999.0,47,-99.99,,,0.00,Acu-Link.com,2013-10-24 22:42:00,
2013-10-24 17:58:00,47.3,28.1,30.22,West,270,0.0,-999.0,47,-99.99,,,0.00,Acu-Link.com,2013-10-24 22:58:00,
2013-10-24 18:13:00,46.2,27.6,30.22,WNW,292,0.0,-999.0,48,-99.99,,,0.00,Acu-Link.com,2013-10-24 23:13:00,
2013-10-24 18:28:00,44.2,27.2,30.22,West,270,0.0,-999.0,51,-99.99,,,0.00,Acu-Link.com,2013-10-24 23:28:00,
2013-10-24 18:43:00,43.2,27.7,30.22,WSW,247,0.0,-999.0,54,-99.99,,,0.00,Acu-Link.com,2013-10-24 23:43:00,
2013-10-24 18:59:00,41.7,28.0,30.22,West,270,0.0,-999.0,58,-99.99,,,0.00,Acu-Link.com,2013-10-24 23:59:00,
2013-10-24 19:14:00,41.0,28.2,30.23,West,270,0.0,-999.0,60,-99.99,,,0.00,Acu-Link.com,2013-10-25 00:14:00,
2013-10-24 19:29:00,39.9,28.0,30.22,West,270,0.0,-999.0,62,-99.99,,,0.00,Acu-Link.com,2013-10-25 00:29:00,
2013-10-24 19:45:00,39.4,28.3,30.23,West,270,0.0,-999.0,64,-99.99,,,0.00,Acu-Link.com,2013-10-25 00:45:00,
2013-10-24 20:00:00,38.5,28.5,30.23,West,270,0.0,-999.0,67,-99.99,,,0.00,Acu-Link.com,2013-10-25 01:00:00,
2013-10-24 20:15:00,37.8,28.2,30.23,West,270,0.0,-999.0,68,-99.99,,,0.00,Acu-Link.com,2013-10-25 01:15:00,
2013-10-24 20:30:00,37.2,28.0,30.23,WNW,292,0.0,-999.0,69,-99.99,,,0.00,Acu-Link.com,2013-10-25 01:30:00,
2013-10-24 20:45:00,36.5,28.0,30.23,West,270,0.0,-999.0,71,-99.99,,,0.00,Acu-Link.com,2013-10-25 01:45:00,
2013-10-24 21:00:00,36.1,28.0,30.23,West,270,0.0,-999.0,72,-99.99,,,0.00,Acu-Link.com,2013-10-25 02:00:00,
2013-10-24 21:16:00,36.1,28.0,30.23,West,270,0.0,-999.0,72,-99.99,,,0.00,Acu-Link.com,2013-10-25 02:16:00,
2013-10-24 21:31:00,36.0,27.9,30.24,West,270,0.0,-999.0,72,-99.99,,,0.00,Acu-Link.com,2013-10-25 02:31:00,
2013-10-24 21:46:00,36.0,27.9,30.24,West,270,0.0,-999.0,72,-99.99,,,0.00,Acu-Link.com,2013-10-25 02:46:00,
2013-10-24 22:02:00,34.5,27.4,30.24,West,270,0.0,-999.0,75,-99.99,,,0.00,Acu-Link.com,2013-10-25 03:02:00,
2013-10-24 22:17:00,34.5,27.4,30.24,WNW,292,0.0,-999.0,75,-99.99,,,0.00,Acu-Link.com,2013-10-25 03:17:00,
2013-10-24 22:32:00,34.9,27.5,30.24,WNW,292,0.0,-999.0,74,-99.99,,,0.00,Acu-Link.com,2013-10-25 03:32:00,
2013-10-24 22:48:00,34.9,27.5,30.25,WNW,292,0.0,-999.0,74,-99.99,,,0.00,Acu-Link.com,2013-10-25 03:48:00,
2013-10-24 23:03:00,33.8,27.4,30.24,NW,315,0.0,-999.0,77,-99.99,,,0.00,Acu-Link.com,2013-10-25 04:03:00,
2013-10-24 23:18:00,33.3,27.2,30.25,NW,315,0.0,-999.0,78,-99.99,,,0.00,Acu-Link.com,2013-10-25 04:18:00,
2013-10-24 23:33:00,32.7,26.6,30.25,NE,45,0.0,-999.0,78,-99.99,,,0.00,Acu-Link.com,2013-10-25 04:33:00,
2013-10-24 23:48:00,32.0,26.5,30.25,ENE,67,0.0,-999.0,80,-99.99,,,0.00,Acu-Link.com,2013-10-25 04:48:00,